This is the latest recevied weather packets stored in our database for station/object K2YYD-2. If no packets are shown the sender has not sent any weather packets the latest 10 day(s).
| Time | Temp. | Humidity | Pressure | Rain* | Wind** | Luminosity | Snow |
|---|---|---|---|---|---|---|---|
| 1787487791 | 20.56° C | 98% | 1005.6 hPa | 35.81 mm | - | 12 W/m² | - |
| 1787487670 | 20.56° C | 97% | 1005.6 hPa | 35.05 mm | - | 11 W/m² | - |
| 1787487555 | 20.56° C | 97% | 1005.6 hPa | 33.78 mm | - | 10 W/m² | - |
| 1787487430 | 20.56° C | 97% | 1005.7 hPa | 30.99 mm | - | 6 W/m² | - |
| 1787487309 | 20.56° C | 97% | 1005.8 hPa | 28.7 mm | - | 4 W/m² | - |
| 1787487190 | 21.11° C | 97% | 1005.6 hPa | 27.43 mm | - | 2 W/m² | - |
| 1787487069 | 21.11° C | 97% | 1005.7 hPa | 26.42 mm | - | 0 W/m² | - |
| 1787486956 | 21.11° C | 97% | 1005.4 hPa | 26.16 mm | - | 3 W/m² | - |
| 1787486830 | 21.11° C | 97% | 1005.3 hPa | 25.91 mm | - | 2 W/m² | - |
| 1787486697 | 21.11° C | 97% | 1005.2 hPa | 25.4 mm | - | 2 W/m² | - |
| 1787486562 | 21.11° C | 97% | 1005.2 hPa | 22.86 mm | - | 0 W/m² | - |
| 1787486441 | 21.11° C | 97% | 1005.3 hPa | 21.84 mm | - | 2 W/m² | - |
| 1787486320 | 21.11° C | 97% | 1005.4 hPa | 18.29 mm | - | 2 W/m² | - |
| 1787486195 | 21.11° C | 97% | 1005.5 hPa | 16 mm | - | 2 W/m² | - |
| 1787486075 | 21.67° C | 97% | 1005.8 hPa | 12.7 mm | - | 0 W/m² | - |
| 1787485948 | 21.67° C | 97% | 1005.8 hPa | 11.18 mm | - | 0 W/m² | - |
| 1787485829 | 21.67° C | 97% | 1005.9 hPa | 7.87 mm | - | 0 W/m² | - |
| 1787485709 | 21.67° C | 97% | 1005.7 hPa | 6.1 mm | - | 0 W/m² | - |
| 1787485589 | 21.67° C | 97% | 1005.7 hPa | 4.32 mm | - | 0 W/m² | - |
| 1787485469 | 21.67° C | 97% | 1005.7 hPa | 3.56 mm | - | 0 W/m² | - |
| 1787485349 | 21.67° C | 97% | 1005.5 hPa | 3.05 mm | - | 0 W/m² | - |
| 1787485229 | 21.67° C | 97% | 1005.5 hPa | 3.05 mm | - | 0 W/m² | - |
| 1787485106 | 21.67° C | 97% | 1005.4 hPa | 2.79 mm | - | 2 W/m² | - |
| 1787484986 | 21.11° C | 97% | 1005.4 hPa | 2.29 mm | - | 2 W/m² | - |
| 1787484857 | 21.11° C | 97% | 1005.3 hPa | 2.29 mm | - | 2 W/m² | - |
* Rain latest hour (hover to see other rain measurements)
** Current wind speed in m/s (hover to see current wind gust speed)